createdAt,value
2016-10-09T00:00:25.854Z,0
2016-10-09T00:01:07.561Z,0
2016-10-09T00:01:49.128Z,0
2016-10-09T00:02:30.750Z,0
2016-10-09T00:03:12.484Z,0
2016-10-09T00:05:33.222Z,0
2016-10-09T00:06:15.039Z,0
2016-10-09T00:06:56.715Z,0
2016-10-09T00:07:38.472Z,0
2016-10-09T00:08:20.155Z,0
2016-10-09T00:09:01.970Z,0
2016-10-09T00:09:43.635Z,0
2016-10-09T00:10:25.313Z,0
2016-10-09T00:11:06.748Z,0
2016-10-09T00:11:48.565Z,0
2016-10-09T00:12:30.281Z,0
2016-10-09T00:13:12.049Z,0
2016-10-09T00:13:53.772Z,0
2016-10-09T00:14:35.487Z,0
2016-10-09T00:17:06.612Z,0
2016-10-09T00:17:48.263Z,0
2016-10-09T00:18:29.985Z,0
2016-10-09T00:19:11.719Z,0
2016-10-09T00:19:53.348Z,0
2016-10-09T00:20:35.066Z,0
2016-10-09T00:21:16.723Z,0
2016-10-09T00:23:53.230Z,0
2016-10-09T00:24:34.914Z,0
2016-10-09T00:25:16.542Z,0
2016-10-09T00:25:58.332Z,0
2016-10-09T00:26:40.059Z,0
2016-10-09T00:28:55.366Z,0
2016-10-09T00:29:37.099Z,0
2016-10-09T00:30:18.815Z,0
2016-10-09T00:31:00.535Z,0
2016-10-09T00:31:42.150Z,0
2016-10-09T00:34:02.935Z,0
2016-10-09T00:34:44.603Z,0
2016-10-09T00:36:44.641Z,0
2016-10-09T00:37:26.118Z,0
2016-10-09T00:38:07.742Z,0
2016-10-09T00:38:49.318Z,0
2016-10-09T00:39:31.003Z,0
2016-10-09T00:40:12.673Z,0
2016-10-09T00:40:54.372Z,0
2016-10-09T00:42:54.450Z,0
2016-10-09T00:43:36.174Z,0
2016-10-09T00:44:17.874Z,0
2016-10-09T00:44:59.504Z,0
2016-10-09T00:45:41.274Z,0
2016-10-09T00:46:22.966Z,0
2016-10-09T00:47:04.690Z,0
2016-10-09T00:49:20.111Z,0
2016-10-09T00:50:01.757Z,0
2016-10-09T00:50:43.457Z,0
2016-10-09T00:51:25.153Z,0
2016-10-09T00:52:06.769Z,0
2016-10-09T00:54:43.270Z,0
2016-10-09T00:55:25.032Z,0
2016-10-09T00:56:06.708Z,0
2016-10-09T00:56:47.675Z,0
2016-10-09T00:57:28.212Z,0
2016-10-09T00:58:08.729Z,0
2016-10-09T00:58:49.251Z,0
2016-10-09T00:59:29.761Z,0
2016-10-09T01:00:10.280Z,0
2016-10-09T01:00:50.811Z,0
2016-10-09T01:01:31.328Z,0
2016-10-09T01:02:11.861Z,0
2016-10-09T01:02:52.389Z,0
2016-10-09T01:03:32.911Z,0
2016-10-09T01:04:13.435Z,0
2016-10-09T01:04:53.959Z,0
2016-10-09T01:05:34.478Z,0
2016-10-09T01:06:15.024Z,0
2016-10-09T01:06:55.529Z,0
2016-10-09T01:07:36.067Z,0
2016-10-09T01:08:16.602Z,0
2016-10-09T01:08:57.146Z,0
2016-10-09T01:09:37.654Z,0
2016-10-09T01:10:18.171Z,0
2016-10-09T01:10:58.724Z,0
2016-10-09T01:11:39.281Z,0
2016-10-09T01:12:19.819Z,0
2016-10-09T01:13:00.345Z,0
2016-10-09T01:13:40.889Z,0
2016-10-09T01:14:21.442Z,0
2016-10-09T01:15:01.964Z,0
2016-10-09T01:15:42.495Z,0
2016-10-09T01:16:23.022Z,0
2016-10-09T01:17:03.554Z,0
2016-10-09T01:17:44.098Z,0
2016-10-09T01:18:24.641Z,0
2016-10-09T01:19:05.174Z,0
2016-10-09T01:19:45.691Z,0
2016-10-09T01:20:26.232Z,0
2016-10-09T01:21:06.769Z,0
2016-10-09T01:21:47.295Z,0
2016-10-09T01:22:27.820Z,0
2016-10-09T01:23:08.356Z,0
2016-10-09T01:23:48.889Z,0
2016-10-09T01:24:29.436Z,0
2016-10-09T01:25:09.968Z,0
2016-10-09T01:25:50.532Z,0
2016-10-09T01:26:31.045Z,0
2016-10-09T01:27:11.581Z,0
2016-10-09T01:27:52.102Z,0
2016-10-09T01:28:32.628Z,0
2016-10-09T01:29:13.149Z,0
2016-10-09T01:29:53.673Z,0
2016-10-09T01:30:34.214Z,0
2016-10-09T01:31:14.753Z,0
2016-10-09T01:31:55.294Z,0
2016-10-09T01:32:35.834Z,0
2016-10-09T01:33:16.373Z,0
2016-10-09T01:33:56.914Z,0
2016-10-09T01:34:37.450Z,0
2016-10-09T01:35:17.992Z,0
2016-10-09T01:35:58.517Z,0
2016-10-09T01:36:39.057Z,0
2016-10-09T01:37:19.595Z,0
2016-10-09T01:38:00.109Z,0
2016-10-09T01:38:40.635Z,0
2016-10-09T01:39:21.160Z,0
2016-10-09T01:40:01.698Z,0
2016-10-09T01:40:42.251Z,0
2016-10-09T01:41:22.788Z,0
2016-10-09T01:42:03.292Z,0
2016-10-09T01:42:43.866Z,0
2016-10-09T01:43:24.386Z,0
2016-10-09T01:44:04.914Z,0
2016-10-09T01:44:45.453Z,0
2016-10-09T01:45:25.994Z,0
2016-10-09T01:46:06.521Z,0
2016-10-09T01:46:47.067Z,0
2016-10-09T01:47:27.614Z,0
2016-10-09T01:48:08.161Z,0
2016-10-09T01:48:48.700Z,0
2016-10-09T01:49:29.212Z,0
2016-10-09T01:50:09.749Z,0
2016-10-09T01:50:50.265Z,0
2016-10-09T01:51:30.791Z,0
2016-10-09T01:52:11.323Z,0
2016-10-09T01:52:51.861Z,0
2016-10-09T01:53:32.410Z,0
2016-10-09T01:54:12.950Z,0
2016-10-09T01:54:53.468Z,0
2016-10-09T01:55:34.012Z,0
2016-10-09T01:56:14.541Z,0
2016-10-09T01:56:55.073Z,0
2016-10-09T01:57:35.610Z,0
2016-10-09T01:58:16.153Z,0
2016-10-09T01:58:56.687Z,0
2016-10-09T01:59:37.229Z,0
2016-10-09T02:00:17.770Z,0
2016-10-09T02:00:58.295Z,0
2016-10-09T02:01:38.829Z,0
2016-10-09T02:02:19.362Z,0
2016-10-09T02:02:59.896Z,0
2016-10-09T02:03:40.437Z,0
2016-10-09T02:04:20.974Z,0
2016-10-09T02:05:01.490Z,0
2016-10-09T02:05:42.022Z,0
2016-10-09T02:06:22.543Z,0
2016-10-09T02:07:03.074Z,0
2016-10-09T02:07:43.601Z,0
2016-10-09T02:08:24.133Z,0
2016-10-09T02:09:04.665Z,0
2016-10-09T02:09:45.195Z,0
2016-10-09T02:10:25.732Z,0
2016-10-09T02:11:06.254Z,0
2016-10-09T02:11:46.765Z,0
2016-10-09T02:12:27.280Z,0
2016-10-09T02:13:07.814Z,0
2016-10-09T02:13:48.346Z,0
2016-10-09T02:14:28.876Z,0
2016-10-09T02:15:09.419Z,0
2016-10-09T02:15:49.970Z,0
2016-10-09T02:16:30.511Z,0
2016-10-09T02:17:11.052Z,0
2016-10-09T02:17:51.585Z,0
2016-10-09T02:18:32.103Z,0
2016-10-09T02:19:12.639Z,0
2016-10-09T02:19:53.174Z,0
2016-10-09T02:20:33.721Z,0
2016-10-09T02:21:14.263Z,0
2016-10-09T02:21:54.804Z,0
2016-10-09T02:22:35.336Z,0
2016-10-09T02:23:15.884Z,0
2016-10-09T02:23:56.428Z,0
2016-10-09T02:24:36.953Z,0
2016-10-09T02:25:17.493Z,0
2016-10-09T02:25:58.019Z,0
2016-10-09T02:26:38.557Z,0
2016-10-09T02:27:19.068Z,0
2016-10-09T02:27:59.583Z,0
2016-10-09T02:28:40.112Z,0
2016-10-09T02:29:20.623Z,0
2016-10-09T02:30:01.189Z,0
2016-10-09T02:30:41.704Z,0
2016-10-09T02:31:22.225Z,0
2016-10-09T02:32:02.737Z,0
2016-10-09T02:32:43.320Z,0
2016-10-09T02:33:23.842Z,0
2016-10-09T02:34:04.366Z,0
2016-10-09T02:34:44.897Z,0
2016-10-09T02:35:25.435Z,0
2016-10-09T02:36:05.970Z,0
2016-10-09T02:36:46.490Z,0
2016-10-09T02:37:27.050Z,0
2016-10-09T02:38:07.587Z,0
2016-10-09T02:38:48.117Z,0
2016-10-09T02:39:28.655Z,0
2016-10-09T02:40:09.197Z,0
2016-10-09T02:40:49.731Z,0
2016-10-09T02:41:30.278Z,0
2016-10-09T02:42:10.807Z,0
2016-10-09T02:42:51.345Z,0
2016-10-09T02:43:31.874Z,0
2016-10-09T02:44:12.410Z,0
2016-10-09T02:44:52.945Z,0
2016-10-09T02:45:33.482Z,0
2016-10-09T02:46:14.021Z,0
2016-10-09T02:46:54.563Z,0
2016-10-09T02:47:35.107Z,0
2016-10-09T02:48:15.646Z,0
2016-10-09T02:48:56.178Z,0
2016-10-09T02:49:36.711Z,0
2016-10-09T02:50:17.248Z,0
2016-10-09T02:50:57.786Z,0
2016-10-09T02:51:38.319Z,0
2016-10-09T02:52:18.852Z,0
2016-10-09T02:52:59.403Z,0
2016-10-09T02:53:39.946Z,0
2016-10-09T02:54:20.490Z,0
2016-10-09T02:55:01.013Z,0
2016-10-09T02:55:41.539Z,0
2016-10-09T02:56:22.067Z,0
2016-10-09T02:57:02.632Z,0
2016-10-09T02:57:43.119Z,0
2016-10-09T02:58:23.650Z,0
2016-10-09T02:59:04.190Z,0
2016-10-09T02:59:44.704Z,0
2016-10-09T03:00:25.241Z,0
2016-10-09T03:01:05.770Z,0
2016-10-09T03:01:46.312Z,0
2016-10-09T03:02:26.846Z,0
2016-10-09T03:03:07.394Z,0
2016-10-09T03:03:47.931Z,0
2016-10-09T03:04:28.464Z,0
2016-10-09T03:05:09.009Z,0
2016-10-09T03:05:49.543Z,0
2016-10-09T03:06:30.071Z,0
2016-10-09T03:07:10.611Z,0
2016-10-09T03:07:51.155Z,0
2016-10-09T03:08:31.697Z,0
2016-10-09T03:09:12.235Z,0
2016-10-09T03:09:52.765Z,0
2016-10-09T03:10:33.295Z,0
2016-10-09T03:11:13.828Z,0
2016-10-09T03:11:54.347Z,0
2016-10-09T03:12:34.887Z,0
2016-10-09T03:13:15.416Z,0
2016-10-09T03:13:55.960Z,0
2016-10-09T03:14:36.503Z,0
2016-10-09T03:15:17.023Z,0
2016-10-09T03:15:57.552Z,0
2016-10-09T03:16:38.073Z,0
2016-10-09T03:17:18.613Z,0
2016-10-09T03:17:59.127Z,0
2016-10-09T03:18:39.670Z,0
2016-10-09T03:19:20.206Z,0
2016-10-09T03:20:01.643Z,0
2016-10-09T03:20:42.170Z,0
2016-10-09T03:21:22.689Z,0
2016-10-09T03:22:03.227Z,0
2016-10-09T03:22:43.747Z,0
2016-10-09T03:23:24.289Z,0
2016-10-09T03:24:04.827Z,0
2016-10-09T03:24:45.351Z,0
2016-10-09T03:25:25.890Z,0
2016-10-09T03:26:06.433Z,0
2016-10-09T03:26:46.977Z,0
2016-10-09T03:27:27.513Z,0
2016-10-09T03:28:08.048Z,0
2016-10-09T03:28:48.571Z,0
2016-10-09T03:29:29.098Z,0
2016-10-09T03:30:09.639Z,0
2016-10-09T03:30:50.201Z,0
2016-10-09T03:31:30.744Z,0
2016-10-09T03:32:11.288Z,0
2016-10-09T03:32:51.806Z,0
2016-10-09T03:33:32.347Z,0
2016-10-09T03:34:12.889Z,0
2016-10-09T03:34:53.408Z,0
2016-10-09T03:35:33.947Z,0
2016-10-09T03:36:14.496Z,0
2016-10-09T03:36:55.049Z,0
2016-10-09T03:37:35.592Z,0
2016-10-09T03:38:16.140Z,0
2016-10-09T03:38:56.668Z,0
2016-10-09T03:39:37.214Z,0
2016-10-09T03:40:17.765Z,0
2016-10-09T03:40:58.305Z,0
2016-10-09T03:41:38.839Z,0
2016-10-09T03:42:19.364Z,0
2016-10-09T03:42:59.891Z,0
2016-10-09T03:43:40.429Z,0
2016-10-09T03:44:20.963Z,0
2016-10-09T03:45:01.508Z,0
2016-10-09T03:45:42.026Z,0
2016-10-09T03:46:22.590Z,0
2016-10-09T03:47:03.117Z,0
2016-10-09T03:47:43.650Z,0
2016-10-09T03:48:24.184Z,0
2016-10-09T03:49:04.714Z,0
2016-10-09T03:49:45.259Z,0
2016-10-09T03:50:25.772Z,0
2016-10-09T03:51:06.302Z,0
2016-10-09T03:51:46.854Z,0
2016-10-09T03:52:27.402Z,0
2016-10-09T03:53:07.929Z,0
2016-10-09T03:53:48.478Z,0
2016-10-09T03:54:29.018Z,0
2016-10-09T03:55:09.547Z,0
2016-10-09T03:55:50.078Z,0
2016-10-09T03:56:30.631Z,0
2016-10-09T03:57:11.158Z,0
2016-10-09T03:57:51.726Z,0
2016-10-09T03:58:32.277Z,0
2016-10-09T03:59:12.817Z,0
2016-10-09T03:59:53.366Z,0
2016-10-09T04:00:33.906Z,0
2016-10-09T04:01:14.447Z,0
2016-10-09T04:01:54.978Z,0
2016-10-09T04:02:35.523Z,0
2016-10-09T04:03:16.065Z,0
2016-10-09T04:03:56.571Z,0
2016-10-09T04:04:37.137Z,0
2016-10-09T04:05:17.685Z,0
2016-10-09T04:05:58.213Z,0
2016-10-09T04:06:38.734Z,0
2016-10-09T04:07:19.241Z,0
2016-10-09T04:07:59.775Z,0
2016-10-09T04:08:40.318Z,0
2016-10-09T04:09:20.861Z,0
2016-10-09T04:10:01.386Z,0
2016-10-09T04:10:41.934Z,0
2016-10-09T04:11:22.457Z,0
2016-10-09T04:12:02.993Z,0
2016-10-09T04:12:43.533Z,0
2016-10-09T04:13:24.073Z,0
2016-10-09T04:14:04.621Z,0
2016-10-09T04:14:45.162Z,0
2016-10-09T04:15:25.685Z,0
2016-10-09T04:16:06.256Z,0
2016-10-09T04:16:46.788Z,0
2016-10-09T04:17:27.312Z,0
2016-10-09T04:18:07.839Z,0
2016-10-09T04:18:48.377Z,0
2016-10-09T04:19:28.931Z,0
2016-10-09T04:20:09.477Z,0
2016-10-09T04:20:50.002Z,0
2016-10-09T04:21:30.538Z,0
2016-10-09T04:22:11.065Z,0
2016-10-09T04:22:51.607Z,0
2016-10-09T04:23:32.134Z,0
2016-10-09T04:24:12.680Z,0
2016-10-09T04:24:53.202Z,0
2016-10-09T04:25:33.743Z,0
2016-10-09T04:26:14.270Z,0
2016-10-09T04:26:54.796Z,0
2016-10-09T04:27:35.330Z,0
2016-10-09T04:28:15.894Z,0
2016-10-09T04:28:56.403Z,0
2016-10-09T04:29:36.943Z,0
2016-10-09T04:30:17.457Z,0
2016-10-09T04:30:57.971Z,0
2016-10-09T04:31:38.518Z,0
2016-10-09T04:32:19.034Z,0
2016-10-09T04:32:59.547Z,0
2016-10-09T04:33:40.090Z,0
2016-10-09T04:34:20.634Z,0
2016-10-09T04:35:01.167Z,0
2016-10-09T04:35:41.704Z,0
2016-10-09T04:36:22.240Z,0
2016-10-09T04:37:02.753Z,0
2016-10-09T04:37:43.285Z,0
2016-10-09T04:38:23.820Z,0
2016-10-09T04:39:04.349Z,0
2016-10-09T04:39:44.888Z,0
2016-10-09T04:40:25.413Z,0
2016-10-09T04:41:05.945Z,0
2016-10-09T04:41:46.493Z,0
2016-10-09T04:42:27.042Z,0
2016-10-09T04:43:07.586Z,0
2016-10-09T04:43:48.107Z,0
2016-10-09T04:44:28.649Z,0
2016-10-09T04:45:09.186Z,0
2016-10-09T04:45:49.717Z,0
2016-10-09T04:46:30.260Z,0
2016-10-09T04:47:10.791Z,0
2016-10-09T04:47:51.330Z,0
2016-10-09T04:48:31.863Z,0
2016-10-09T04:49:12.385Z,0
2016-10-09T04:49:52.915Z,0
2016-10-09T04:50:33.448Z,0
2016-10-09T04:51:13.991Z,0
2016-10-09T04:51:54.515Z,0
2016-10-09T04:52:35.034Z,0
2016-10-09T04:53:15.572Z,0
2016-10-09T04:53:56.104Z,0
2016-10-09T04:54:36.645Z,0
2016-10-09T04:55:17.161Z,0
2016-10-09T04:55:57.689Z,0
2016-10-09T04:56:38.211Z,0
2016-10-09T04:57:18.747Z,0
2016-10-09T04:57:59.265Z,0
2016-10-09T04:58:39.766Z,0
2016-10-09T04:59:20.303Z,0
2016-10-09T05:00:00.846Z,0
2016-10-09T05:00:41.372Z,0
2016-10-09T05:01:21.899Z,0
2016-10-09T05:02:02.421Z,0
2016-10-09T05:02:42.954Z,0
2016-10-09T05:03:23.499Z,0
2016-10-09T05:04:04.057Z,0
2016-10-09T05:04:44.598Z,0
2016-10-09T05:05:25.133Z,0
2016-10-09T05:06:05.670Z,0
2016-10-09T05:06:46.245Z,0
2016-10-09T05:07:26.773Z,0
2016-10-09T05:08:07.288Z,0
2016-10-09T05:08:47.813Z,0
2016-10-09T05:09:28.350Z,0
2016-10-09T05:10:08.886Z,0
2016-10-09T05:10:49.425Z,0
2016-10-09T05:11:29.974Z,0
2016-10-09T05:12:10.511Z,0
2016-10-09T05:12:51.019Z,0
2016-10-09T05:13:31.564Z,0
2016-10-09T05:14:12.096Z,0
2016-10-09T05:14:52.621Z,0
2016-10-09T05:15:33.141Z,0
2016-10-09T05:16:13.685Z,0
2016-10-09T05:16:54.189Z,0
2016-10-09T05:17:34.725Z,0
2016-10-09T05:18:15.256Z,4
2016-10-09T05:18:55.782Z,4
2016-10-09T05:19:36.321Z,0
2016-10-09T05:20:16.852Z,0
2016-10-09T05:20:57.379Z,4
2016-10-09T05:21:37.901Z,4
2016-10-09T05:22:18.419Z,4
2016-10-09T05:22:58.959Z,4
2016-10-09T05:23:39.502Z,8
2016-10-09T05:24:20.031Z,4
2016-10-09T05:25:00.558Z,8
2016-10-09T05:25:41.086Z,4
2016-10-09T05:26:21.613Z,8
2016-10-09T05:27:02.145Z,8
2016-10-09T05:27:42.667Z,8
2016-10-09T05:28:23.171Z,12
2016-10-09T05:29:03.681Z,12
2016-10-09T05:29:44.209Z,16
2016-10-09T05:30:24.725Z,16
2016-10-09T05:31:05.266Z,16
2016-10-09T05:31:46.683Z,20
2016-10-09T05:32:27.210Z,24
2016-10-09T05:33:07.739Z,28
2016-10-09T05:33:48.227Z,28
2016-10-09T05:34:28.741Z,32
2016-10-09T05:35:09.297Z,32
2016-10-09T05:35:49.789Z,36
2016-10-09T05:36:30.328Z,40
2016-10-09T05:37:10.859Z,44
2016-10-09T05:37:51.439Z,48
2016-10-09T05:38:31.971Z,52
2016-10-09T05:39:12.509Z,56
2016-10-09T05:39:53.052Z,64
2016-10-09T05:40:33.599Z,68
2016-10-09T05:41:14.140Z,72
2016-10-09T05:41:54.660Z,80
2016-10-09T05:42:35.194Z,80
2016-10-09T05:43:15.733Z,92
2016-10-09T05:43:56.262Z,96
2016-10-09T05:44:36.778Z,104
2016-10-09T05:45:17.313Z,112
2016-10-09T05:45:57.820Z,116
2016-10-09T05:46:38.359Z,128
2016-10-09T05:47:18.876Z,136
2016-10-09T05:47:59.435Z,144
2016-10-09T05:48:39.935Z,156
2016-10-09T05:49:20.470Z,164
2016-10-09T05:50:01.005Z,172
2016-10-09T05:50:41.538Z,184
2016-10-09T05:51:22.080Z,196
2016-10-09T05:52:02.591Z,204
2016-10-09T05:52:43.132Z,220
2016-10-09T05:53:23.649Z,228
2016-10-09T05:54:04.199Z,240
2016-10-09T05:54:44.718Z,256
2016-10-09T05:55:25.287Z,268
2016-10-09T05:56:05.825Z,280
2016-10-09T05:56:46.366Z,292
2016-10-09T05:57:26.893Z,304
2016-10-09T05:58:07.429Z,320
2016-10-09T05:58:47.971Z,332
2016-10-09T05:59:28.525Z,344
2016-10-09T06:00:09.214Z,360
2016-10-09T06:00:49.747Z,372
2016-10-09T06:01:30.323Z,388
2016-10-09T06:02:10.852Z,400
2016-10-09T06:02:51.429Z,412
2016-10-09T06:03:31.975Z,424
2016-10-09T06:04:12.526Z,440
2016-10-09T06:04:53.054Z,460
2016-10-09T06:05:33.596Z,476
2016-10-09T06:06:14.118Z,492
2016-10-09T06:06:54.638Z,508
2016-10-09T06:07:35.173Z,528
2016-10-09T06:08:15.674Z,532
2016-10-09T06:08:56.220Z,540
2016-10-09T06:09:36.762Z,556
2016-10-09T06:10:17.282Z,560
2016-10-09T06:10:57.826Z,560
2016-10-09T06:11:38.334Z,568
2016-10-09T06:12:18.872Z,572
2016-10-09T06:12:59.391Z,576
2016-10-09T06:13:39.912Z,584
2016-10-09T06:14:20.465Z,592
2016-10-09T06:15:00.981Z,608
2016-10-09T06:15:41.515Z,628
2016-10-09T06:16:22.035Z,648
2016-10-09T06:17:02.550Z,652
2016-10-09T06:17:43.078Z,656
2016-10-09T06:18:23.623Z,652
2016-10-09T06:19:04.180Z,648
2016-10-09T06:19:44.723Z,644
2016-10-09T06:20:25.239Z,632
2016-10-09T06:21:05.785Z,620
2016-10-09T06:21:46.315Z,616
2016-10-09T06:22:26.855Z,612
2016-10-09T06:23:07.393Z,624
2016-10-09T06:23:47.931Z,632
2016-10-09T06:24:28.478Z,636
2016-10-09T06:25:09.021Z,648
2016-10-09T06:25:49.562Z,660
2016-10-09T06:26:30.092Z,664
2016-10-09T06:27:10.643Z,668
2016-10-09T06:27:51.194Z,676
2016-10-09T06:28:31.717Z,680
2016-10-09T06:29:12.446Z,688
2016-10-09T06:29:52.989Z,700
2016-10-09T06:30:33.529Z,712
2016-10-09T06:31:14.055Z,724
2016-10-09T06:31:54.562Z,732
2016-10-09T06:32:35.086Z,748
2016-10-09T06:33:15.604Z,760
2016-10-09T06:33:56.147Z,764
2016-10-09T06:34:36.708Z,772
2016-10-09T06:35:17.229Z,780
2016-10-09T06:35:57.765Z,796
2016-10-09T06:36:38.312Z,804
2016-10-09T06:37:18.852Z,812
2016-10-09T06:37:59.392Z,824
2016-10-09T06:38:39.904Z,832
2016-10-09T06:39:20.414Z,844
2016-10-09T06:40:00.948Z,848
2016-10-09T06:40:41.498Z,860
2016-10-09T06:41:22.040Z,860
2016-10-09T06:42:02.580Z,868
2016-10-09T06:42:43.106Z,896
2016-10-09T06:43:23.651Z,912
2016-10-09T06:44:04.182Z,924
2016-10-09T06:44:44.719Z,932
2016-10-09T06:45:25.263Z,940
2016-10-09T06:46:05.802Z,944
2016-10-09T06:46:46.345Z,952
2016-10-09T06:47:26.878Z,976
2016-10-09T06:48:07.436Z,1000
2016-10-09T06:48:47.960Z,1056
2016-10-09T06:49:28.490Z,1112
2016-10-09T06:50:09.009Z,1180
2016-10-09T06:50:49.544Z,1224
2016-10-09T06:51:30.064Z,1240
2016-10-09T06:52:10.603Z,1284
2016-10-09T06:52:51.120Z,1340
2016-10-09T06:53:31.658Z,1432
2016-10-09T06:54:12.199Z,1520
2016-10-09T06:54:52.743Z,1588
2016-10-09T06:55:33.275Z,1664
2016-10-09T06:56:13.815Z,1776
2016-10-09T06:56:54.356Z,1880
2016-10-09T06:57:34.879Z,1960
2016-10-09T06:58:15.424Z,2016
2016-10-09T06:58:55.965Z,2068
2016-10-09T06:59:36.502Z,2148
2016-10-09T07:00:17.041Z,2244
2016-10-09T07:00:57.570Z,2308
2016-10-09T07:01:38.123Z,2384
2016-10-09T07:02:18.652Z,2448
2016-10-09T07:02:59.171Z,2504
2016-10-09T07:03:39.709Z,2528
2016-10-09T07:04:20.252Z,2596
2016-10-09T07:05:00.775Z,2676
2016-10-09T07:05:41.275Z,2736
2016-10-09T07:06:21.802Z,2792
2016-10-09T07:07:02.323Z,2856
2016-10-09T07:07:42.842Z,2904
2016-10-09T07:08:23.360Z,2920
2016-10-09T07:09:03.900Z,2924
2016-10-09T07:09:44.424Z,2932
2016-10-09T07:10:24.974Z,2936
2016-10-09T07:11:05.482Z,2952
2016-10-09T07:11:45.989Z,3008
2016-10-09T07:12:26.512Z,3076
2016-10-09T07:13:07.023Z,3088
2016-10-09T07:13:47.566Z,3124
2016-10-09T07:14:28.096Z,3220
2016-10-09T07:15:08.598Z,3276
2016-10-09T07:15:49.124Z,3292
2016-10-09T07:16:29.680Z,3344
2016-10-09T07:17:10.210Z,3400
2016-10-09T07:17:50.750Z,3480
2016-10-09T07:18:31.276Z,3596
2016-10-09T07:19:11.815Z,3684
2016-10-09T07:19:52.342Z,3764
2016-10-09T07:20:32.933Z,3836
2016-10-09T07:21:13.498Z,3860
2016-10-09T07:21:54.031Z,3900
2016-10-09T07:22:34.694Z,3988
2016-10-09T07:23:15.253Z,4060
2016-10-09T07:23:55.784Z,4132
2016-10-09T07:24:36.319Z,4216
2016-10-09T07:25:16.832Z,4280
2016-10-09T07:25:57.370Z,4308
2016-10-09T07:26:37.909Z,4336
2016-10-09T07:27:18.474Z,4328
2016-10-09T07:27:59.028Z,4376
2016-10-09T07:28:39.624Z,4436
2016-10-09T07:29:20.121Z,4456
2016-10-09T07:30:00.644Z,4456
2016-10-09T07:30:41.172Z,4452
2016-10-09T07:31:21.698Z,4444
2016-10-09T07:32:02.239Z,4452
2016-10-09T07:32:42.784Z,4432
2016-10-09T07:33:23.331Z,4484
2016-10-09T07:34:03.906Z,4580
2016-10-09T07:34:44.456Z,4644
2016-10-09T07:35:25.000Z,4744
2016-10-09T07:36:05.541Z,4956
2016-10-09T07:36:46.081Z,5188
2016-10-09T07:37:26.621Z,5392
2016-10-09T07:38:07.184Z,5600
2016-10-09T07:38:47.721Z,5764
2016-10-09T07:39:28.268Z,5844
2016-10-09T07:40:08.802Z,5924
2016-10-09T07:40:49.329Z,5936
2016-10-09T07:41:29.859Z,5904
2016-10-09T07:42:10.395Z,5868
2016-10-09T07:42:50.936Z,5864
2016-10-09T07:43:31.477Z,5776
2016-10-09T07:44:12.015Z,5780
2016-10-09T07:44:52.553Z,5836
2016-10-09T07:45:33.065Z,5900
2016-10-09T07:46:13.584Z,6044
2016-10-09T07:46:54.158Z,6204
2016-10-09T07:47:34.694Z,6340
2016-10-09T07:48:15.255Z,6472
2016-10-09T07:48:55.800Z,6552
2016-10-09T07:49:36.340Z,6568
2016-10-09T07:50:16.880Z,6668
2016-10-09T07:50:57.414Z,6776
2016-10-09T07:51:37.958Z,6872
2016-10-09T07:52:18.486Z,6900
2016-10-09T07:52:59.024Z,6876
2016-10-09T07:53:39.556Z,6856
2016-10-09T07:54:20.092Z,6928
2016-10-09T07:55:00.618Z,7056
2016-10-09T07:55:41.149Z,7248
2016-10-09T07:56:21.673Z,7376
2016-10-09T07:57:02.211Z,7528
2016-10-09T07:57:42.753Z,7780
2016-10-09T07:58:23.303Z,8072
2016-10-09T07:59:03.852Z,8372
2016-10-09T07:59:44.401Z,8368
2016-10-09T08:00:24.961Z,8352
2016-10-09T08:01:05.508Z,8332
2016-10-09T08:01:46.063Z,8028
2016-10-09T08:02:26.617Z,7776
2016-10-09T08:03:07.159Z,7604
2016-10-09T08:03:47.691Z,7472
2016-10-09T08:04:28.232Z,7340
2016-10-09T08:05:08.791Z,7332
2016-10-09T08:05:49.328Z,7264
2016-10-09T08:06:29.875Z,7408
2016-10-09T08:07:10.407Z,7616
2016-10-09T08:07:50.950Z,7380
2016-10-09T08:08:31.483Z,7196
2016-10-09T08:09:12.024Z,7152
2016-10-09T08:09:52.565Z,7188
2016-10-09T08:10:33.110Z,7220
2016-10-09T08:11:13.640Z,7288
2016-10-09T08:11:54.180Z,7232
2016-10-09T08:12:34.739Z,7292
2016-10-09T08:13:15.287Z,6964
2016-10-09T08:13:55.827Z,7572
2016-10-09T08:14:36.350Z,7876
2016-10-09T08:15:16.887Z,7760
2016-10-09T08:15:57.431Z,7444
2016-10-09T08:16:37.960Z,7792
2016-10-09T08:17:18.485Z,7816
2016-10-09T08:17:59.029Z,7804
2016-10-09T08:18:39.575Z,7944
2016-10-09T08:19:20.100Z,8312
2016-10-09T08:20:00.617Z,8712
2016-10-09T08:20:41.134Z,9368
2016-10-09T08:21:21.659Z,9656
2016-10-09T08:22:02.182Z,9528
2016-10-09T08:22:42.729Z,9924
2016-10-09T08:23:23.272Z,9796
2016-10-09T08:24:03.836Z,9324
2016-10-09T08:24:44.376Z,8484
2016-10-09T08:25:24.930Z,8540
2016-10-09T08:26:05.477Z,9080
2016-10-09T08:26:46.031Z,9444
2016-10-09T08:27:26.523Z,9248
2016-10-09T08:28:07.043Z,9060
2016-10-09T08:28:47.535Z,8916
2016-10-09T08:29:28.063Z,8356
2016-10-09T08:30:08.596Z,8096
2016-10-09T08:30:49.120Z,7896
2016-10-09T08:31:29.642Z,7644
2016-10-09T08:32:10.155Z,7496
2016-10-09T08:32:50.699Z,7360
2016-10-09T08:33:31.251Z,7372
2016-10-09T08:34:11.782Z,7308
2016-10-09T08:34:52.332Z,7292
2016-10-09T08:35:32.838Z,7188
2016-10-09T08:36:13.337Z,7196
2016-10-09T08:36:53.838Z,7236
2016-10-09T08:37:34.325Z,7212
2016-10-09T08:38:14.832Z,7672
2016-10-09T08:38:55.365Z,8588
2016-10-09T08:39:35.907Z,9952
2016-10-09T08:40:16.448Z,11088
2016-10-09T08:40:56.974Z,11684
2016-10-09T08:41:37.508Z,11580
2016-10-09T08:42:18.027Z,11028
2016-10-09T08:42:58.553Z,10196
2016-10-09T08:43:39.097Z,9348
2016-10-09T08:44:19.638Z,8736
2016-10-09T08:45:00.181Z,8264
2016-10-09T08:45:40.701Z,8036
2016-10-09T08:46:21.268Z,8244
2016-10-09T08:47:01.807Z,8996
2016-10-09T08:47:42.383Z,10384
2016-10-09T08:48:22.912Z,15204
2016-10-09T08:49:03.457Z,19744
2016-10-09T08:49:44.020Z,22240
2016-10-09T08:50:24.595Z,16928
2016-10-09T08:51:05.143Z,24320
2016-10-09T08:51:45.667Z,21664
2016-10-09T08:52:26.227Z,21728
2016-10-09T08:53:06.754Z,29920
2016-10-09T08:53:47.303Z,29760
2016-10-09T08:54:27.852Z,29504
2016-10-09T08:55:08.337Z,29056
2016-10-09T08:55:48.887Z,29280
2016-10-09T08:56:29.419Z,29984
2016-10-09T08:57:09.959Z,30880
2016-10-09T08:57:50.509Z,30656
2016-10-09T08:58:31.059Z,31168
2016-10-09T08:59:11.627Z,31744
2016-10-09T08:59:52.163Z,31808
2016-10-09T09:00:32.708Z,31424
2016-10-09T09:01:13.288Z,32544
2016-10-09T09:01:53.787Z,32896
2016-10-09T09:02:34.318Z,33120
2016-10-09T09:03:14.858Z,32416
2016-10-09T09:03:55.439Z,32480
2016-10-09T09:04:35.967Z,33088
2016-10-09T09:05:16.511Z,32672
2016-10-09T09:05:57.037Z,31616
2016-10-09T09:06:37.565Z,31872
2016-10-09T09:07:18.092Z,32288
2016-10-09T09:07:58.618Z,32032
2016-10-09T09:08:39.164Z,31584
2016-10-09T09:09:19.709Z,31840
2016-10-09T09:10:00.241Z,32864
2016-10-09T09:10:40.777Z,32672
2016-10-09T09:11:21.590Z,32192
2016-10-09T09:12:02.036Z,30944
2016-10-09T09:12:42.535Z,30944
2016-10-09T09:13:23.088Z,32768
2016-10-09T09:14:03.614Z,32512
2016-10-09T09:14:44.155Z,32384
2016-10-09T09:15:24.677Z,32000
2016-10-09T09:16:05.198Z,32320
2016-10-09T09:16:45.743Z,33376
2016-10-09T09:17:26.276Z,32928
2016-10-09T09:18:06.793Z,32384
2016-10-09T09:18:47.307Z,32992
2016-10-09T09:19:27.846Z,33792
2016-10-09T09:20:08.386Z,33824
2016-10-09T09:20:48.918Z,33952
2016-10-09T09:21:29.424Z,34944
2016-10-09T09:22:09.962Z,36416
2016-10-09T09:22:50.497Z,37280
2016-10-09T09:23:31.025Z,36672
2016-10-09T09:24:11.538Z,35392
2016-10-09T09:24:52.066Z,35488
2016-10-09T09:25:32.603Z,35776
2016-10-09T09:26:13.160Z,35968
2016-10-09T09:26:53.679Z,34848
2016-10-09T09:27:34.185Z,35008
2016-10-09T09:28:14.732Z,34816
2016-10-09T09:28:55.266Z,33920
2016-10-09T09:29:35.830Z,32928
2016-10-09T09:30:16.365Z,32928
2016-10-09T09:30:56.908Z,33344
2016-10-09T09:31:37.446Z,32448
2016-10-09T09:32:17.988Z,33312
2016-10-09T09:32:58.526Z,34976
2016-10-09T09:33:39.039Z,34560
2016-10-09T09:34:19.576Z,34976
2016-10-09T09:35:00.110Z,36640
2016-10-09T09:35:40.638Z,37920
2016-10-09T09:36:21.197Z,29760
2016-10-09T09:37:01.714Z,29536
2016-10-09T09:37:42.249Z,26592
2016-10-09T09:38:22.816Z,22656
2016-10-09T09:39:03.338Z,21120
2016-10-09T09:39:43.889Z,26272
2016-10-09T09:40:24.399Z,27936
2016-10-09T09:41:04.922Z,27712
2016-10-09T09:41:45.437Z,26848
2016-10-09T09:42:25.966Z,23488
2016-10-09T09:43:06.490Z,23264
2016-10-09T09:43:47.000Z,20384
2016-10-09T09:44:27.529Z,31296
2016-10-09T09:45:08.078Z,35072
2016-10-09T09:45:48.582Z,19616
2016-10-09T09:46:29.123Z,26432
2016-10-09T09:47:09.671Z,30304
2016-10-09T09:47:50.181Z,19040